createdAt,value
2023-01-13T00:01:26.925Z,100132.13
2023-01-13T00:03:53.859Z,100130.09
2023-01-13T00:06:23.773Z,100134.00
2023-01-13T00:08:52.588Z,100133.81
2023-01-13T00:11:21.087Z,100134.22
2023-01-13T00:13:48.125Z,100131.47
2023-01-13T00:16:18.060Z,100134.75
2023-01-13T00:18:45.468Z,100134.84
2023-01-13T00:21:14.476Z,100131.06
2023-01-13T00:23:42.219Z,100134.75
2023-01-13T00:26:12.534Z,100130.78
2023-01-13T00:28:39.514Z,100130.94
2023-01-13T00:31:07.861Z,100129.22
2023-01-13T00:33:35.614Z,100134.97
2023-01-13T00:36:04.148Z,100134.31
2023-01-13T00:38:32.886Z,100136.25
2023-01-13T00:41:01.324Z,100126.06
2023-01-13T00:43:31.488Z,100125.13
2023-01-13T00:45:59.209Z,100116.94
2023-01-13T00:48:27.042Z,100111.19
2023-01-13T00:50:58.570Z,100108.94
2023-01-13T00:53:26.214Z,100101.75
2023-01-13T00:55:59.383Z,100105.50
2023-01-13T00:58:26.355Z,100100.44
2023-01-13T01:00:55.081Z,100096.00
2023-01-13T01:03:21.963Z,100105.41
2023-01-13T01:05:49.041Z,100114.09
2023-01-13T01:08:16.970Z,100109.25
2023-01-13T01:10:44.015Z,100095.78
2023-01-13T01:13:10.901Z,100102.78
2023-01-13T01:15:40.247Z,100111.38
2023-01-13T01:18:08.687Z,100102.34
2023-01-13T01:20:37.069Z,100106.09
2023-01-13T01:23:04.339Z,100107.25
2023-01-13T01:25:32.750Z,100109.69
2023-01-13T01:28:00.324Z,100104.28
2023-01-13T01:30:27.270Z,100094.13
2023-01-13T01:32:54.501Z,100096.25
2023-01-13T01:35:22.818Z,100080.81
2023-01-13T01:37:49.763Z,100086.41
2023-01-13T01:40:17.975Z,100082.19
2023-01-13T01:42:44.835Z,100078.16
2023-01-13T01:45:17.854Z,100080.81
2023-01-13T01:47:48.429Z,100071.84
2023-01-13T01:50:16.652Z,100085.88
2023-01-13T01:52:49.388Z,100084.69
2023-01-13T01:55:20.093Z,100080.53
2023-01-13T01:57:51.713Z,100083.25
2023-01-13T02:00:18.932Z,100081.34
2023-01-13T02:02:50.187Z,100080.16
2023-01-13T02:05:17.926Z,100069.44
2023-01-13T02:07:48.903Z,100059.69
2023-01-13T02:10:18.243Z,100063.69
2023-01-13T02:12:46.544Z,100048.41
2023-01-13T02:15:17.737Z,100058.78
2023-01-13T02:18:05.951Z,100046.69
2023-01-13T02:20:58.418Z,100058.84
2023-01-13T02:23:54.873Z,100070.97
2023-01-13T02:27:02.097Z,100061.81
2023-01-13T02:29:48.778Z,100068.72
2023-01-13T02:32:21.812Z,100067.19
2023-01-13T02:34:56.503Z,100070.06
2023-01-13T02:37:28.807Z,100053.69
2023-01-13T02:39:59.425Z,100069.38
2023-01-13T02:42:32.436Z,100066.22
2023-01-13T02:45:04.776Z,100067.19
2023-01-13T02:47:35.901Z,100063.19
2023-01-13T02:50:07.094Z,100070.97
2023-01-13T02:52:38.328Z,100052.13
2023-01-13T02:55:09.513Z,100048.22
2023-01-13T02:57:38.293Z,100050.25
2023-01-13T03:00:12.248Z,100044.13
2023-01-13T03:02:39.337Z,100041.19
2023-01-13T03:05:06.944Z,100046.03
2023-01-13T03:07:44.946Z,100050.75
2023-01-13T03:10:22.231Z,100037.38
2023-01-13T03:12:57.973Z,100035.28
2023-01-13T03:15:37.925Z,100027.34
2023-01-13T03:18:13.923Z,100019.03
2023-01-13T03:20:49.219Z,100020.16
2023-01-13T03:23:19.336Z,100020.03
2023-01-13T03:25:55.977Z,100017.97
2023-01-13T03:28:30.255Z,100019.47
2023-01-13T03:31:04.366Z,100018.75
2023-01-13T03:33:35.709Z,100015.38
2023-01-13T03:36:08.373Z,100016.34
2023-01-13T03:38:38.415Z,100018.06
2023-01-13T03:41:08.829Z,100011.94
2023-01-13T03:43:39.015Z,100016.50
2023-01-13T03:46:20.465Z,100013.06
2023-01-13T03:48:52.575Z,100014.47
2023-01-13T03:51:25.527Z,100006.25
2023-01-13T03:53:57.214Z,100006.53
2023-01-13T03:56:29.885Z,100015.22
2023-01-13T03:59:00.844Z,100008.94
2023-01-13T04:01:35.301Z,100010.25
2023-01-13T04:04:06.343Z,100005.13
2023-01-13T04:06:39.438Z,100009.84
2023-01-13T04:09:15.606Z,100004.81
2023-01-13T04:11:47.116Z,100002.41
2023-01-13T04:14:17.306Z,100001.44
2023-01-13T04:16:45.477Z,100001.44
2023-01-13T04:19:12.549Z,100011.72
2023-01-13T04:21:39.389Z,100000.78
2023-01-13T04:24:06.795Z,99981.38
2023-01-13T04:26:33.580Z,99992.97
2023-01-13T04:29:00.312Z,99981.13
2023-01-13T04:31:27.483Z,99991.81
2023-01-13T04:33:55.642Z,99986.88
2023-01-13T04:36:22.832Z,99967.53
2023-01-13T04:38:50.830Z,99997.91
2023-01-13T04:41:17.980Z,99992.53
2023-01-13T04:43:44.773Z,99989.69
2023-01-13T04:46:11.991Z,99988.22
2023-01-13T04:48:38.912Z,99996.72
2023-01-13T04:51:07.663Z,100009.72
2023-01-13T04:53:34.462Z,99990.50
2023-01-13T04:56:01.261Z,99991.72
2023-01-13T04:58:28.052Z,100000.44
2023-01-13T05:00:54.863Z,100013.06
2023-01-13T05:03:21.755Z,100004.50
2023-01-13T05:05:51.501Z,100006.06
2023-01-13T05:08:19.480Z,100020.84
2023-01-13T05:10:46.307Z,100005.78
2023-01-13T05:13:13.242Z,100007.59
2023-01-13T05:15:40.762Z,100011.91
2023-01-13T05:18:07.769Z,100016.34
2023-01-13T05:20:34.883Z,100010.69
2023-01-13T05:23:01.717Z,100007.84
2023-01-13T05:25:30.037Z,100009.28
2023-01-13T05:27:58.545Z,100010.53
2023-01-13T05:30:26.806Z,100000.66
2023-01-13T05:32:53.924Z,99993.66
2023-01-13T05:35:20.708Z,100008.97
2023-01-13T05:37:47.631Z,100013.00
2023-01-13T05:40:16.757Z,100011.03
2023-01-13T05:42:45.092Z,100017.19
2023-01-13T05:45:12.501Z,100005.97
2023-01-13T05:47:39.629Z,100016.34
2023-01-13T05:50:07.007Z,100006.38
2023-01-13T05:52:33.943Z,100008.88
2023-01-13T05:55:00.686Z,100009.50
2023-01-13T05:57:27.544Z,100001.47
2023-01-13T05:59:55.797Z,99999.28
2023-01-13T06:02:22.738Z,100008.66
2023-01-13T06:04:49.499Z,100006.13
2023-01-13T06:07:16.390Z,100010.19
2023-01-13T06:09:43.049Z,100010.03
2023-01-13T06:12:11.794Z,100020.66
2023-01-13T06:14:38.601Z,100011.47
2023-01-13T06:17:07.503Z,100007.25
2023-01-13T06:19:34.298Z,100003.91
2023-01-13T06:22:08.433Z,100004.34
2023-01-13T06:24:36.341Z,99998.13
2023-01-13T06:27:05.027Z,100012.94
2023-01-13T06:29:31.845Z,100016.03
2023-01-13T06:31:59.550Z,100017.72
2023-01-13T06:34:27.887Z,100016.66
2023-01-13T06:36:56.224Z,100029.34
2023-01-13T06:39:26.681Z,100025.75
2023-01-13T06:41:54.657Z,100014.44
2023-01-13T06:44:23.570Z,100026.91
2023-01-13T06:46:51.356Z,100022.03
2023-01-13T06:49:20.587Z,100027.34
2023-01-13T06:51:49.427Z,100027.06
2023-01-13T06:54:16.313Z,100028.00
2023-01-13T06:56:43.011Z,100015.50
2023-01-13T06:59:09.756Z,100029.69
2023-01-13T07:01:36.604Z,100027.56
2023-01-13T07:04:03.961Z,100030.44
2023-01-13T07:06:31.007Z,100005.56
2023-01-13T07:08:59.335Z,100033.06
2023-01-13T07:11:26.129Z,100047.63
2023-01-13T07:13:52.991Z,100032.28
2023-01-13T07:16:20.141Z,100026.69
2023-01-13T07:18:47.175Z,100043.06
2023-01-13T07:21:14.202Z,100031.63
2023-01-13T07:23:41.673Z,100040.81
2023-01-13T07:26:11.213Z,100026.63
2023-01-13T07:28:39.160Z,100039.97
2023-01-13T07:31:12.457Z,100038.91
2023-01-13T07:33:39.247Z,100043.56
2023-01-13T07:36:07.200Z,100043.34
2023-01-13T07:38:34.685Z,100045.75
2023-01-13T07:41:01.743Z,100052.72
2023-01-13T07:43:29.939Z,100049.84
2023-01-13T07:45:57.152Z,100054.56
2023-01-13T07:48:24.392Z,100037.19
2023-01-13T07:50:51.399Z,100054.97
2023-01-13T07:53:18.247Z,100042.66
2023-01-13T07:55:45.317Z,100039.47
2023-01-13T07:58:12.507Z,100057.81
2023-01-13T08:00:40.797Z,100045.34
2023-01-13T08:03:07.593Z,100056.47
2023-01-13T08:08:44.804Z,100067.78
2023-01-13T08:11:13.748Z,100062.03
2023-01-13T08:13:45.274Z,100066.91
2023-01-13T08:16:15.977Z,100065.22
2023-01-13T08:18:43.272Z,100075.81
2023-01-13T08:21:11.864Z,100081.13
2023-01-13T08:23:39.302Z,100084.72
2023-01-13T08:26:08.086Z,100075.41
2023-01-13T08:28:35.107Z,100079.56
2023-01-13T08:31:04.180Z,100082.19
2023-01-13T08:33:33.146Z,100086.75
2023-01-13T08:36:03.996Z,100091.53
2023-01-13T08:38:31.412Z,100091.94
2023-01-13T08:40:58.193Z,100093.63
2023-01-13T08:43:25.185Z,100096.06
2023-01-13T08:46:00.044Z,100093.63
2023-01-13T08:48:29.781Z,100101.16
2023-01-13T08:51:04.042Z,100099.94
2023-01-13T08:53:31.177Z,100098.38
2023-01-13T08:55:58.098Z,100114.66
2023-01-13T08:58:27.402Z,100108.41
2023-01-13T09:00:54.551Z,100119.00
2023-01-13T09:03:21.464Z,100115.94
2023-01-13T09:05:48.232Z,100107.03
2023-01-13T09:08:16.393Z,100108.72
2023-01-13T09:10:43.320Z,100125.59
2023-01-13T09:13:13.578Z,100124.06
2023-01-13T09:15:42.433Z,100127.19
2023-01-13T09:18:09.566Z,100139.34
2023-01-13T09:20:36.866Z,100134.72
2023-01-13T09:23:04.000Z,100143.41
2023-01-13T09:25:32.353Z,100139.66
2023-01-13T09:27:59.153Z,100147.25
2023-01-13T09:30:26.302Z,100141.72
2023-01-13T09:32:53.093Z,100150.66
2023-01-13T09:35:19.882Z,100146.38
2023-01-13T09:37:46.695Z,100150.41
2023-01-13T09:40:19.410Z,100157.69
2023-01-13T09:42:54.842Z,100151.19
2023-01-13T09:45:25.593Z,100143.50
2023-01-13T09:47:57.152Z,100157.28
2023-01-13T09:50:33.328Z,100141.59
2023-01-13T09:53:00.719Z,100163.53
2023-01-13T09:55:33.498Z,100165.75
2023-01-13T09:58:10.457Z,100165.13
2023-01-13T10:00:43.283Z,100178.91
2023-01-13T10:03:21.881Z,100187.63
2023-01-13T10:05:55.840Z,100188.16
2023-01-13T10:08:25.924Z,100184.13
2023-01-13T10:10:57.656Z,100185.50
2023-01-13T10:13:28.039Z,100191.22
2023-01-13T10:16:16.492Z,100197.56
2023-01-13T10:18:56.969Z,100213.03
2023-01-13T10:21:48.198Z,100216.44
2023-01-13T10:24:23.704Z,100213.88
2023-01-13T10:26:55.838Z,100226.81
2023-01-13T10:29:25.688Z,100223.41
2023-01-13T10:31:53.437Z,100216.13
2023-01-13T10:34:21.045Z,100221.06
2023-01-13T10:37:00.431Z,100226.66
2023-01-13T10:39:28.401Z,100222.00
2023-01-13T10:42:04.356Z,100228.94
2023-01-13T10:44:38.416Z,100224.47
2023-01-13T10:47:28.719Z,100244.22
2023-01-13T10:50:21.989Z,100240.47
2023-01-13T10:52:59.253Z,100241.72
2023-01-13T10:55:29.122Z,100251.34
2023-01-13T10:57:56.485Z,100253.06
2023-01-13T11:00:31.022Z,100252.81
2023-01-13T11:03:15.571Z,100261.19
2023-01-13T11:05:50.008Z,100267.16
2023-01-13T11:08:18.731Z,100263.44
2023-01-13T11:10:48.041Z,100269.38
2023-01-13T11:13:17.065Z,100279.66
2023-01-13T11:15:50.683Z,100268.19
2023-01-13T11:18:25.323Z,100270.94
2023-01-13T11:20:54.732Z,100280.16
2023-01-13T11:23:24.457Z,100269.44
2023-01-13T11:25:56.995Z,100259.78
2023-01-13T11:28:42.074Z,100287.03
2023-01-13T11:31:18.693Z,100274.84
2023-01-13T11:33:51.140Z,100291.72
2023-01-13T11:36:21.437Z,100275.00
2023-01-13T11:38:51.030Z,100279.53
2023-01-13T11:41:27.654Z,100301.63
2023-01-13T11:43:59.594Z,100292.88
2023-01-13T11:46:28.399Z,100316.75
2023-01-13T11:48:56.560Z,100282.81
2023-01-13T11:51:32.692Z,100310.19
2023-01-13T11:54:19.800Z,100314.81
2023-01-13T11:57:17.963Z,100320.66
2023-01-13T12:00:15.670Z,100316.84
2023-01-13T12:02:53.876Z,100342.44
2023-01-13T12:05:28.823Z,100339.34
2023-01-13T12:08:04.829Z,100365.88
2023-01-13T12:10:44.928Z,100350.56
2023-01-13T12:13:24.218Z,100360.19
2023-01-13T12:16:13.957Z,100355.31
2023-01-13T12:18:55.610Z,100360.00
2023-01-13T12:21:26.788Z,100360.22
2023-01-13T12:24:05.982Z,100359.28
2023-01-13T12:26:36.050Z,100357.25
2023-01-13T12:29:06.257Z,100366.47
2023-01-13T12:31:36.727Z,100367.06
2023-01-13T12:34:27.759Z,100365.66
2023-01-13T12:37:02.912Z,100367.28
2023-01-13T12:39:42.604Z,100376.41
2023-01-13T12:42:16.412Z,100380.97
2023-01-13T12:45:19.186Z,100388.50
2023-01-13T12:47:46.822Z,100398.06
2023-01-13T12:50:58.088Z,100396.75
2023-01-13T12:53:36.239Z,100405.03
2023-01-13T12:56:30.519Z,100405.44
2023-01-13T12:59:34.437Z,100412.25
2023-01-13T13:02:31.088Z,100400.34
2023-01-13T13:05:01.330Z,100423.72
2023-01-13T13:07:41.114Z,100421.94
2023-01-13T13:10:18.631Z,100432.41
2023-01-13T13:12:57.843Z,100429.31
2023-01-13T13:15:25.954Z,100444.44
2023-01-13T13:18:19.483Z,100428.16
2023-01-13T13:21:11.451Z,100441.97
2023-01-13T13:24:01.634Z,100443.13
2023-01-13T13:26:40.504Z,100438.91
2023-01-13T13:29:40.107Z,100462.22
2023-01-13T13:32:34.273Z,100457.25
2023-01-13T13:35:20.833Z,100463.94
2023-01-13T13:37:59.908Z,100472.63
2023-01-13T13:40:32.450Z,100480.06
2023-01-13T13:43:00.431Z,100502.69
2023-01-13T13:45:28.128Z,100488.56
2023-01-13T13:47:55.541Z,100494.00
2023-01-13T13:50:22.740Z,100495.81
2023-01-13T13:52:55.344Z,100504.63
2023-01-13T13:55:24.017Z,100509.28
2023-01-13T13:57:55.933Z,100504.69
2023-01-13T14:00:25.931Z,100527.53
2023-01-13T14:02:54.812Z,100536.22
2023-01-13T14:05:24.062Z,100525.28
2023-01-13T14:08:00.605Z,100545.16
2023-01-13T14:10:32.712Z,100552.16
2023-01-13T14:13:02.664Z,100547.06
2023-01-13T14:15:35.493Z,100571.25
2023-01-13T14:18:05.003Z,100565.97
2023-01-13T14:20:32.460Z,100582.84
2023-01-13T14:23:00.333Z,100578.38
2023-01-13T14:25:29.406Z,100581.47
2023-01-13T14:27:58.936Z,100576.91
2023-01-13T14:30:27.487Z,100582.09
2023-01-13T14:32:56.001Z,100598.88
2023-01-13T14:35:22.770Z,100592.50
2023-01-13T14:37:49.514Z,100601.44
2023-01-13T14:40:42.151Z,100615.44
2023-01-13T14:43:13.143Z,100611.50
2023-01-13T14:45:53.861Z,100615.66
2023-01-13T14:48:21.936Z,100613.31
2023-01-13T14:50:48.725Z,100616.09
2023-01-13T14:53:35.089Z,100615.31
2023-01-13T14:56:35.104Z,100619.03
2023-01-13T14:59:02.517Z,100627.34
2023-01-13T15:01:41.196Z,100626.34
2023-01-13T15:04:17.784Z,100643.88
2023-01-13T15:06:48.321Z,100640.25
2023-01-13T15:09:28.207Z,100654.00
2023-01-13T15:14:39.175Z,100671.97
2023-01-13T15:20:22.450Z,100677.97
2023-01-13T15:22:50.686Z,100684.34
2023-01-13T15:25:21.703Z,100685.19
2023-01-13T15:27:53.097Z,100677.03
2023-01-13T15:30:22.978Z,100703.88
2023-01-13T15:32:58.197Z,100701.88
2023-01-13T15:35:55.523Z,100702.28
2023-01-13T15:38:25.577Z,100726.81
2023-01-13T15:41:00.577Z,100725.09
2023-01-13T15:43:32.492Z,100728.84
2023-01-13T15:45:59.807Z,100735.94
2023-01-13T15:48:35.793Z,100746.72
2023-01-13T15:54:03.095Z,100740.25
2023-01-13T15:56:30.977Z,100764.69
2023-01-13T16:01:48.104Z,100761.09
2023-01-13T16:04:15.222Z,100770.38
2023-01-13T16:06:50.603Z,100770.00
2023-01-13T16:16:08.116Z,100788.34
2023-01-13T16:21:34.675Z,100792.16
2023-01-13T16:24:28.057Z,100794.03
2023-01-13T16:27:00.978Z,100809.28
2023-01-13T16:29:29.146Z,100800.28
2023-01-13T16:34:56.684Z,100810.69
2023-01-13T16:50:38.774Z,100828.47
2023-01-13T16:53:11.634Z,100842.50
2023-01-13T16:55:41.485Z,100849.31
2023-01-13T16:58:16.437Z,100853.09
2023-01-13T17:00:43.492Z,100857.78
2023-01-13T17:09:33.439Z,100858.78
2023-01-13T17:15:26.445Z,100877.97
2023-01-13T17:40:54.038Z,100894.59
2023-01-13T17:43:23.209Z,100906.50
2023-01-13T17:45:50.445Z,100907.84
2023-01-13T17:48:18.516Z,100907.84
2023-01-13T17:50:47.299Z,100915.50
2023-01-13T17:53:14.289Z,100921.47
2023-01-13T17:55:41.066Z,100926.75
2023-01-13T17:58:07.924Z,100931.19
2023-01-13T18:00:35.102Z,100936.47
2023-01-13T18:03:02.054Z,100944.09
2023-01-13T18:05:32.314Z,100947.78
2023-01-13T18:08:03.044Z,100951.06
2023-01-13T18:16:18.447Z,100954.25
2023-01-13T18:19:02.603Z,100966.94
2023-01-13T18:21:54.891Z,100953.88
2023-01-13T18:24:28.581Z,100971.25
2023-01-13T18:27:00.048Z,100960.44
2023-01-13T18:29:26.924Z,100963.75
2023-01-13T18:31:54.161Z,100981.06
2023-01-13T18:37:12.973Z,100969.53
2023-01-13T18:46:35.906Z,101000.91
2023-01-13T19:01:12.683Z,101033.00
2023-01-13T19:04:07.018Z,101023.34
2023-01-13T19:09:33.751Z,101047.41
2023-01-13T19:19:39.696Z,101067.81
2023-01-13T19:22:07.367Z,101066.13
2023-01-13T19:30:32.840Z,101089.13
2023-01-13T19:41:11.741Z,101080.50
2023-01-13T19:43:39.452Z,101088.63
2023-01-13T19:46:10.142Z,101077.91
2023-01-13T19:48:39.590Z,101095.19
2023-01-13T19:51:08.991Z,101103.56
2023-01-13T19:53:37.652Z,101114.09
2023-01-13T19:56:05.847Z,101115.53
2023-01-13T19:58:32.725Z,101120.59
2023-01-13T20:00:59.868Z,101119.22
2023-01-13T20:03:30.946Z,101123.66
2023-01-13T20:06:05.711Z,101123.31
2023-01-13T20:08:33.813Z,101120.91
2023-01-13T20:11:01.116Z,101120.50
2023-01-13T20:13:28.707Z,101120.84
2023-01-13T20:15:55.695Z,101124.03
2023-01-13T20:18:22.685Z,101123.41
2023-01-13T20:23:37.256Z,101121.78
2023-01-13T20:26:07.670Z,101135.78
2023-01-13T20:31:16.969Z,101146.31
2023-01-13T20:33:45.824Z,101159.16
2023-01-13T20:36:25.336Z,101163.09
2023-01-13T20:38:57.513Z,101168.47
2023-01-13T20:42:00.591Z,101174.81
2023-01-13T20:44:29.649Z,101178.56
2023-01-13T20:46:59.232Z,101173.09
2023-01-13T20:49:56.006Z,101177.34
2023-01-13T20:52:30.586Z,101177.59
2023-01-13T20:54:57.693Z,101172.81
2023-01-13T20:57:25.818Z,101179.84
2023-01-13T20:59:54.532Z,101191.38
2023-01-13T21:02:21.276Z,101183.94
2023-01-13T21:04:48.747Z,101218.03
2023-01-13T21:07:15.812Z,101210.53
2023-01-13T21:09:43.609Z,101213.94
2023-01-13T21:12:13.755Z,101222.66
2023-01-13T21:14:40.898Z,101225.59
2023-01-13T21:17:25.277Z,101230.63
2023-01-13T21:19:52.925Z,101229.34
2023-01-13T21:22:22.050Z,101220.34
2023-01-13T21:24:57.599Z,101229.34
2023-01-13T21:27:29.884Z,101223.63
2023-01-13T21:39:30.550Z,101232.09
2023-01-13T21:42:17.613Z,101228.22
2023-01-13T21:50:46.147Z,101220.19
2023-01-13T22:08:55.079Z,101257.28
2023-01-13T22:14:20.726Z,101263.78
2023-01-13T22:59:21.658Z,101288.22
2023-01-13T23:04:51.649Z,101310.44
2023-01-13T23:07:23.558Z,101307.72
2023-01-13T23:09:51.614Z,101309.50
2023-01-13T23:12:22.772Z,101321.81
2023-01-13T23:14:51.439Z,101328.63
2023-01-13T23:17:19.312Z,101329.97
2023-01-13T23:19:46.086Z,101337.69
2023-01-13T23:22:38.624Z,101328.94
2023-01-13T23:28:04.164Z,101321.16
2023-01-13T23:34:07.596Z,101321.78
2023-01-13T23:54:06.926Z,101309.25
2023-01-13T23:56:37.607Z,101307.25
2023-01-13T23:59:09.932Z,101318.28
